sensor_id;sensor_type;location;lat;lon;timestamp;temperature;humidity
26182;DHT22;13927;51.534;11.866;2023-02-15T00:01:59;0.10;99.90
26182;DHT22;13927;51.534;11.866;2023-02-15T00:04:25;0.10;99.90
26182;DHT22;13927;51.534;11.866;2023-02-15T00:07:12;0.10;99.90
26182;DHT22;13927;51.534;11.866;2023-02-15T00:09:49;0.10;99.90
26182;DHT22;13927;51.534;11.866;2023-02-15T00:12:16;0.10;99.90
26182;DHT22;13927;51.534;11.866;2023-02-15T00:14:42;0.10;99.90
26182;DHT22;13927;51.534;11.866;2023-02-15T00:17:08;0.10;99.90
26182;DHT22;13927;51.534;11.866;2023-02-15T00:19:33;0.10;99.90
26182;DHT22;13927;51.534;11.866;2023-02-15T00:21:59;0.00;99.90
26182;DHT22;13927;51.534;11.866;2023-02-15T00:24:25;0.00;99.90
26182;DHT22;13927;51.534;11.866;2023-02-15T00:26:52;0.00;99.90
26182;DHT22;13927;51.534;11.866;2023-02-15T00:29:19;0.00;99.90
26182;DHT22;13927;51.534;11.866;2023-02-15T00:31:45;0.00;99.90
26182;DHT22;13927;51.534;11.866;2023-02-15T00:34:14;0.00;99.90
26182;DHT22;13927;51.534;11.866;2023-02-15T00:36:41;0.00;99.90
26182;DHT22;13927;51.534;11.866;2023-02-15T00:39:07;0.10;99.90
26182;DHT22;13927;51.534;11.866;2023-02-15T00:41:35;0.10;99.90
26182;DHT22;13927;51.534;11.866;2023-02-15T00:44:01;0.10;99.90
26182;DHT22;13927;51.534;11.866;2023-02-15T00:46:27;0.20;99.90
26182;DHT22;13927;51.534;11.866;2023-02-15T00:48:53;0.20;99.90
26182;DHT22;13927;51.534;11.866;2023-02-15T00:51:19;0.20;99.90
26182;DHT22;13927;51.534;11.866;2023-02-15T00:53:45;0.20;99.90
26182;DHT22;13927;51.534;11.866;2023-02-15T00:56:11;0.30;99.90
26182;DHT22;13927;51.534;11.866;2023-02-15T00:58:37;0.30;99.90
26182;DHT22;13927;51.534;11.866;2023-02-15T01:01:06;0.40;99.90
26182;DHT22;13927;51.534;11.866;2023-02-15T01:03:33;0.40;99.90
26182;DHT22;13927;51.534;11.866;2023-02-15T01:06:00;0.40;99.90
26182;DHT22;13927;51.534;11.866;2023-02-15T01:08:26;0.40;99.90
26182;DHT22;13927;51.534;11.866;2023-02-15T01:10:52;0.50;99.90
26182;DHT22;13927;51.534;11.866;2023-02-15T01:13:18;0.50;99.90
26182;DHT22;13927;51.534;11.866;2023-02-15T01:15:44;0.50;99.90
26182;DHT22;13927;51.534;11.866;2023-02-15T01:18:17;0.60;99.90
26182;DHT22;13927;51.534;11.866;2023-02-15T01:20:42;0.60;99.90
26182;DHT22;13927;51.534;11.866;2023-02-15T01:23:08;0.60;99.90
26182;DHT22;13927;51.534;11.866;2023-02-15T01:25:35;0.60;99.90
26182;DHT22;13927;51.534;11.866;2023-02-15T01:28:02;0.70;99.90
26182;DHT22;13927;51.534;11.866;2023-02-15T01:30:28;0.70;99.90
26182;DHT22;13927;51.534;11.866;2023-02-15T01:32:54;0.70;99.90
26182;DHT22;13927;51.534;11.866;2023-02-15T01:35:19;0.80;99.90
26182;DHT22;13927;51.534;11.866;2023-02-15T01:37:45;0.80;99.90
26182;DHT22;13927;51.534;11.866;2023-02-15T01:40:15;0.80;99.90
26182;DHT22;13927;51.534;11.866;2023-02-15T01:42:43;0.90;99.90
26182;DHT22;13927;51.534;11.866;2023-02-15T01:48:10;0.90;99.90
26182;DHT22;13927;51.534;11.866;2023-02-15T01:50:56;0.90;99.90
26182;DHT22;13927;51.534;11.866;2023-02-15T01:53:43;1.00;99.90
26182;DHT22;13927;51.534;11.866;2023-02-15T01:56:24;1.00;99.90
26182;DHT22;13927;51.534;11.866;2023-02-15T01:58:53;1.00;99.90
26182;DHT22;13927;51.534;11.866;2023-02-15T02:01:24;1.00;99.90
26182;DHT22;13927;51.534;11.866;2023-02-15T02:06:53;1.10;99.90
26182;DHT22;13927;51.534;11.866;2023-02-15T02:09:19;1.00;99.90
26182;DHT22;13927;51.534;11.866;2023-02-15T02:11:46;1.00;99.90
26182;DHT22;13927;51.534;11.866;2023-02-15T02:14:13;0.90;99.90
26182;DHT22;13927;51.534;11.866;2023-02-15T02:19:45;0.70;99.90
26182;DHT22;13927;51.534;11.866;2023-02-15T02:22:46;0.60;99.90
26182;DHT22;13927;51.534;11.866;2023-02-15T02:43:47;-0.10;99.90
26182;DHT22;13927;51.534;11.866;2023-02-15T02:46:32;-0.10;99.90
26182;DHT22;13927;51.534;11.866;2023-02-15T02:49:09;-0.30;99.90
26182;DHT22;13927;51.534;11.866;2023-02-15T02:51:37;-0.20;99.90
26182;DHT22;13927;51.534;11.866;2023-02-15T02:54:05;-0.20;99.90
26182;DHT22;13927;51.534;11.866;2023-02-15T02:56:45;-0.20;99.90
26182;DHT22;13927;51.534;11.866;2023-02-15T02:59:18;-0.20;99.90
26182;DHT22;13927;51.534;11.866;2023-02-15T03:02:13;-0.20;99.90
26182;DHT22;13927;51.534;11.866;2023-02-15T03:05:00;-0.20;99.90
26182;DHT22;13927;51.534;11.866;2023-02-15T03:07:30;-0.10;99.90
26182;DHT22;13927;51.534;11.866;2023-02-15T03:09:59;-0.10;99.90
26182;DHT22;13927;51.534;11.866;2023-02-15T03:12:32;-0.20;99.90
26182;DHT22;13927;51.534;11.866;2023-02-15T03:15:15;-0.10;99.90
26182;DHT22;13927;51.534;11.866;2023-02-15T03:18:04;-0.10;99.90
26182;DHT22;13927;51.534;11.866;2023-02-15T03:20:32;0.00;99.90
26182;DHT22;13927;51.534;11.866;2023-02-15T03:23:03;-0.10;99.90
26182;DHT22;13927;51.534;11.866;2023-02-15T03:25:34;0.00;99.90
26182;DHT22;13927;51.534;11.866;2023-02-15T03:28:11;0.00;99.90
26182;DHT22;13927;51.534;11.866;2023-02-15T03:30:40;0.00;99.90
26182;DHT22;13927;51.534;11.866;2023-02-15T03:33:09;0.00;99.90
26182;DHT22;13927;51.534;11.866;2023-02-15T03:36:11;-0.10;99.90
26182;DHT22;13927;51.534;11.866;2023-02-15T03:39:11;-0.20;99.90
26182;DHT22;13927;51.534;11.866;2023-02-15T03:41:59;-0.20;99.90
26182;DHT22;13927;51.534;11.866;2023-02-15T03:44:59;-0.20;99.90
26182;DHT22;13927;51.534;11.866;2023-02-15T03:47:32;-0.30;99.90
26182;DHT22;13927;51.534;11.866;2023-02-15T03:50:08;-0.30;99.90
26182;DHT22;13927;51.534;11.866;2023-02-15T03:52:59;-0.30;99.90
26182;DHT22;13927;51.534;11.866;2023-02-15T03:55:27;-0.40;99.90
26182;DHT22;13927;51.534;11.866;2023-02-15T03:57:53;-0.40;99.90
26182;DHT22;13927;51.534;11.866;2023-02-15T04:00:40;-0.40;99.90
26182;DHT22;13927;51.534;11.866;2023-02-15T04:03:38;-0.30;99.90
26182;DHT22;13927;51.534;11.866;2023-02-15T04:06:05;-0.30;99.90
26182;DHT22;13927;51.534;11.866;2023-02-15T04:08:31;-0.30;99.90
26182;DHT22;13927;51.534;11.866;2023-02-15T04:11:15;-0.30;99.90
26182;DHT22;13927;51.534;11.866;2023-02-15T04:13:41;-0.20;99.90
26182;DHT22;13927;51.534;11.866;2023-02-15T04:16:06;-0.20;99.90
26182;DHT22;13927;51.534;11.866;2023-02-15T04:18:34;-0.20;99.90
26182;DHT22;13927;51.534;11.866;2023-02-15T04:21:22;-0.20;99.90
26182;DHT22;13927;51.534;11.866;2023-02-15T04:24:07;-0.10;99.90
26182;DHT22;13927;51.534;11.866;2023-02-15T04:26:51;0.00;99.90
26182;DHT22;13927;51.534;11.866;2023-02-15T04:29:22;0.00;99.90
26182;DHT22;13927;51.534;11.866;2023-02-15T04:31:49;0.10;99.90
26182;DHT22;13927;51.534;11.866;2023-02-15T04:34:16;0.10;99.90
26182;DHT22;13927;51.534;11.866;2023-02-15T04:36:42;0.10;99.90
26182;DHT22;13927;51.534;11.866;2023-02-15T04:39:08;0.10;99.90
26182;DHT22;13927;51.534;11.866;2023-02-15T04:41:34;0.10;99.90
26182;DHT22;13927;51.534;11.866;2023-02-15T04:44:01;0.00;99.90
26182;DHT22;13927;51.534;11.866;2023-02-15T04:46:27;0.00;99.90
26182;DHT22;13927;51.534;11.866;2023-02-15T04:48:54;-0.10;99.90
26182;DHT22;13927;51.534;11.866;2023-02-15T04:51:19;-0.20;99.90
26182;DHT22;13927;51.534;11.866;2023-02-15T04:53:45;-0.30;99.90
26182;DHT22;13927;51.534;11.866;2023-02-15T04:56:11;-0.50;99.90
26182;DHT22;13927;51.534;11.866;2023-02-15T04:58:37;-0.60;99.90
26182;DHT22;13927;51.534;11.866;2023-02-15T05:01:09;-0.60;99.90
26182;DHT22;13927;51.534;11.866;2023-02-15T05:03:35;-0.60;99.90
26182;DHT22;13927;51.534;11.866;2023-02-15T05:06:00;-0.60;99.90
26182;DHT22;13927;51.534;11.866;2023-02-15T05:08:26;-0.60;99.90
26182;DHT22;13927;51.534;11.866;2023-02-15T05:10:52;-0.70;99.90
26182;DHT22;13927;51.534;11.866;2023-02-15T05:13:18;-0.60;99.90
26182;DHT22;13927;51.534;11.866;2023-02-15T05:15:51;-0.60;99.90
26182;DHT22;13927;51.534;11.866;2023-02-15T05:18:19;-0.60;99.90
26182;DHT22;13927;51.534;11.866;2023-02-15T05:20:46;-0.50;99.90
26182;DHT22;13927;51.534;11.866;2023-02-15T05:23:12;-0.70;99.90
26182;DHT22;13927;51.534;11.866;2023-02-15T05:25:38;-0.60;99.90
26182;DHT22;13927;51.534;11.866;2023-02-15T05:28:26;-0.60;99.90
26182;DHT22;13927;51.534;11.866;2023-02-15T05:33:37;-0.60;99.90
26182;DHT22;13927;51.534;11.866;2023-02-15T05:36:04;-0.60;99.90
26182;DHT22;13927;51.534;11.866;2023-02-15T05:38:30;-0.60;99.90
26182;DHT22;13927;51.534;11.866;2023-02-15T05:40:56;-0.60;99.90
26182;DHT22;13927;51.534;11.866;2023-02-15T05:43:22;-0.60;99.90
26182;DHT22;13927;51.534;11.866;2023-02-15T05:45:50;-0.50;99.90
26182;DHT22;13927;51.534;11.866;2023-02-15T05:48:18;-0.50;99.90
26182;DHT22;13927;51.534;11.866;2023-02-15T05:50:45;-0.50;99.90
26182;DHT22;13927;51.534;11.866;2023-02-15T05:53:11;-0.40;99.90
26182;DHT22;13927;51.534;11.866;2023-02-15T05:55:40;-0.40;99.90
26182;DHT22;13927;51.534;11.866;2023-02-15T05:58:07;-0.40;99.90
26182;DHT22;13927;51.534;11.866;2023-02-15T06:00:33;-0.40;99.90
26182;DHT22;13927;51.534;11.866;2023-02-15T06:02:59;-0.40;99.90
26182;DHT22;13927;51.534;11.866;2023-02-15T06:05:25;-0.40;99.90
26182;DHT22;13927;51.534;11.866;2023-02-15T06:07:51;-0.40;99.90
26182;DHT22;13927;51.534;11.866;2023-02-15T06:10:17;-0.30;99.90
26182;DHT22;13927;51.534;11.866;2023-02-15T06:12:44;-0.30;99.90
26182;DHT22;13927;51.534;11.866;2023-02-15T06:15:10;-0.20;99.90
26182;DHT22;13927;51.534;11.866;2023-02-15T06:17:36;-0.20;99.90
26182;DHT22;13927;51.534;11.866;2023-02-15T06:20:02;-0.20;99.90
26182;DHT22;13927;51.534;11.866;2023-02-15T06:22:28;-0.20;99.90
26182;DHT22;13927;51.534;11.866;2023-02-15T06:24:54;-0.20;99.90
26182;DHT22;13927;51.534;11.866;2023-02-15T06:27:20;-0.20;99.90
26182;DHT22;13927;51.534;11.866;2023-02-15T06:29:45;-0.10;99.90
26182;DHT22;13927;51.534;11.866;2023-02-15T06:32:11;-0.10;99.90
26182;DHT22;13927;51.534;11.866;2023-02-15T06:34:37;-0.10;99.90
26182;DHT22;13927;51.534;11.866;2023-02-15T06:37:02;-0.20;99.90
26182;DHT22;13927;51.534;11.866;2023-02-15T06:39:28;-0.20;99.90
26182;DHT22;13927;51.534;11.866;2023-02-15T06:41:54;-0.20;99.90
26182;DHT22;13927;51.534;11.866;2023-02-15T06:44:19;-0.20;99.90
26182;DHT22;13927;51.534;11.866;2023-02-15T06:46:45;-0.20;99.90
26182;DHT22;13927;51.534;11.866;2023-02-15T06:49:11;-0.20;99.90
26182;DHT22;13927;51.534;11.866;2023-02-15T06:51:37;-0.10;99.90
26182;DHT22;13927;51.534;11.866;2023-02-15T06:54:02;-0.20;99.90
26182;DHT22;13927;51.534;11.866;2023-02-15T06:56:29;-0.20;99.90
26182;DHT22;13927;51.534;11.866;2023-02-15T06:58:55;-0.30;99.90
26182;DHT22;13927;51.534;11.866;2023-02-15T07:01:21;-0.30;99.90
26182;DHT22;13927;51.534;11.866;2023-02-15T07:03:47;-0.30;99.90
26182;DHT22;13927;51.534;11.866;2023-02-15T07:06:12;-0.30;99.90
26182;DHT22;13927;51.534;11.866;2023-02-15T07:08:38;-0.40;99.90
26182;DHT22;13927;51.534;11.866;2023-02-15T07:11:05;-0.40;99.90
26182;DHT22;13927;51.534;11.866;2023-02-15T07:13:50;-0.40;99.90
26182;DHT22;13927;51.534;11.866;2023-02-15T07:16:15;-0.40;99.90
26182;DHT22;13927;51.534;11.866;2023-02-15T07:18:41;-0.30;99.90
26182;DHT22;13927;51.534;11.866;2023-02-15T07:21:07;-0.30;99.90
26182;DHT22;13927;51.534;11.866;2023-02-15T07:23:38;-0.20;99.90
26182;DHT22;13927;51.534;11.866;2023-02-15T07:26:05;-0.30;99.90
26182;DHT22;13927;51.534;11.866;2023-02-15T07:28:32;-0.20;99.90
26182;DHT22;13927;51.534;11.866;2023-02-15T07:31:02;-0.20;99.90
26182;DHT22;13927;51.534;11.866;2023-02-15T07:33:30;-0.10;99.90
26182;DHT22;13927;51.534;11.866;2023-02-15T07:35:58;-0.10;99.90
26182;DHT22;13927;51.534;11.866;2023-02-15T07:38:27;0.00;99.90
26182;DHT22;13927;51.534;11.866;2023-02-15T07:41:16;0.10;99.90
26182;DHT22;13927;51.534;11.866;2023-02-15T07:43:44;0.10;99.90
26182;DHT22;13927;51.534;11.866;2023-02-15T07:46:13;0.10;99.90
26182;DHT22;13927;51.534;11.866;2023-02-15T07:48:40;0.10;99.90
26182;DHT22;13927;51.534;11.866;2023-02-15T07:51:09;0.20;99.90
26182;DHT22;13927;51.534;11.866;2023-02-15T07:53:36;0.20;99.90
26182;DHT22;13927;51.534;11.866;2023-02-15T07:56:09;0.30;99.90
26182;DHT22;13927;51.534;11.866;2023-02-15T07:58:36;0.40;99.90
26182;DHT22;13927;51.534;11.866;2023-02-15T08:01:26;0.40;99.90
26182;DHT22;13927;51.534;11.866;2023-02-15T08:03:54;0.30;99.90
26182;DHT22;13927;51.534;11.866;2023-02-15T08:06:21;0.40;99.90
26182;DHT22;13927;51.534;11.866;2023-02-15T08:08:48;0.30;99.90
26182;DHT22;13927;51.534;11.866;2023-02-15T08:11:24;0.30;99.90
26182;DHT22;13927;51.534;11.866;2023-02-15T08:16:39;0.50;99.90
26182;DHT22;13927;51.534;11.866;2023-02-15T08:21:43;0.90;99.90
26182;DHT22;13927;51.534;11.866;2023-02-15T08:24:18;1.20;99.90
26182;DHT22;13927;51.534;11.866;2023-02-15T08:26:46;1.60;99.90
26182;DHT22;13927;51.534;11.866;2023-02-15T08:29:17;1.90;99.90
26182;DHT22;13927;51.534;11.866;2023-02-15T08:31:44;2.00;99.90
26182;DHT22;13927;51.534;11.866;2023-02-15T08:34:12;2.30;99.90
26182;DHT22;13927;51.534;11.866;2023-02-15T08:36:40;2.50;99.90
26182;DHT22;13927;51.534;11.866;2023-02-15T08:39:07;2.60;99.90
26182;DHT22;13927;51.534;11.866;2023-02-15T08:41:34;2.80;99.90
26182;DHT22;13927;51.534;11.866;2023-02-15T08:44:03;3.00;99.90
26182;DHT22;13927;51.534;11.866;2023-02-15T08:46:33;3.10;99.90
26182;DHT22;13927;51.534;11.866;2023-02-15T08:49:00;3.20;99.90
26182;DHT22;13927;51.534;11.866;2023-02-15T08:51:29;3.40;99.90
26182;DHT22;13927;51.534;11.866;2023-02-15T08:53:58;3.40;99.90
26182;DHT22;13927;51.534;11.866;2023-02-15T08:56:27;3.50;99.90
26182;DHT22;13927;51.534;11.866;2023-02-15T08:58:57;3.70;99.90
26182;DHT22;13927;51.534;11.866;2023-02-15T09:01:25;3.80;99.90
26182;DHT22;13927;51.534;11.866;2023-02-15T09:04:00;3.80;99.90
26182;DHT22;13927;51.534;11.866;2023-02-15T09:06:28;4.10;99.90
26182;DHT22;13927;51.534;11.866;2023-02-15T09:08:54;4.30;99.90
26182;DHT22;13927;51.534;11.866;2023-02-15T09:11:23;4.30;99.90
26182;DHT22;13927;51.534;11.866;2023-02-15T09:14:00;4.50;99.90
26182;DHT22;13927;51.534;11.866;2023-02-15T09:16:29;4.50;99.90
26182;DHT22;13927;51.534;11.866;2023-02-15T09:18:58;4.40;99.90
26182;DHT22;13927;51.534;11.866;2023-02-15T09:21:25;4.50;99.90
26182;DHT22;13927;51.534;11.866;2023-02-15T09:23:56;4.70;99.90
26182;DHT22;13927;51.534;11.866;2023-02-15T09:26:25;4.90;99.90
26182;DHT22;13927;51.534;11.866;2023-02-15T09:28:54;5.20;99.90
26182;DHT22;13927;51.534;11.866;2023-02-15T09:31:24;5.50;99.90
26182;DHT22;13927;51.534;11.866;2023-02-15T09:33:51;5.70;99.90
26182;DHT22;13927;51.534;11.866;2023-02-15T09:36:30;5.90;99.90
26182;DHT22;13927;51.534;11.866;2023-02-15T09:53:10;5.70;99.90
26182;DHT22;13927;51.534;11.866;2023-02-15T09:56:14;5.70;99.90
26182;DHT22;13927;51.534;11.866;2023-02-15T10:01:45;6.10;99.90
26182;DHT22;13927;51.534;11.866;2023-02-15T10:04:53;6.30;99.90
26182;DHT22;13927;51.534;11.866;2023-02-15T10:07:49;6.50;99.90
26182;DHT22;13927;51.534;11.866;2023-02-15T10:10:40;6.50;99.90
26182;DHT22;13927;51.534;11.866;2023-02-15T10:13:21;6.70;99.90
26182;DHT22;13927;51.534;11.866;2023-02-15T10:16:30;6.70;99.90
26182;DHT22;13927;51.534;11.866;2023-02-15T10:25:28;6.90;99.90
26182;DHT22;13927;51.534;11.866;2023-02-15T10:28:05;7.00;99.90
26182;DHT22;13927;51.534;11.866;2023-02-15T10:30:36;7.20;99.90
26182;DHT22;13927;51.534;11.866;2023-02-15T10:33:38;7.30;99.90
26182;DHT22;13927;51.534;11.866;2023-02-15T10:36:29;7.40;99.90
26182;DHT22;13927;51.534;11.866;2023-02-15T10:56:19;7.80;99.90
26182;DHT22;13927;51.534;11.866;2023-02-15T11:06:40;8.30;99.90
26182;DHT22;13927;51.534;11.866;2023-02-15T11:09:15;8.60;99.90
26182;DHT22;13927;51.534;11.866;2023-02-15T11:11:46;8.80;99.90
26182;DHT22;13927;51.534;11.866;2023-02-15T11:17:28;8.90;99.90
26182;DHT22;13927;51.534;11.866;2023-02-15T11:20:16;9.00;99.90
26182;DHT22;13927;51.534;11.866;2023-02-15T11:22:50;9.20;99.90
26182;DHT22;13927;51.534;11.866;2023-02-15T11:25:32;9.30;99.90
26182;DHT22;13927;51.534;11.866;2023-02-15T11:28:03;9.30;99.90
26182;DHT22;13927;51.534;11.866;2023-02-15T11:30:42;9.30;99.90
26182;DHT22;13927;51.534;11.866;2023-02-15T11:33:35;9.40;99.90
26182;DHT22;13927;51.534;11.866;2023-02-15T11:36:15;9.40;99.90
26182;DHT22;13927;51.534;11.866;2023-02-15T11:38:49;9.50;99.90
26182;DHT22;13927;51.534;11.866;2023-02-15T11:41:23;9.70;99.90
26182;DHT22;13927;51.534;11.866;2023-02-15T11:44:06;9.80;99.90
26182;DHT22;13927;51.534;11.866;2023-02-15T11:46:39;9.90;99.90
26182;DHT22;13927;51.534;11.866;2023-02-15T11:49:34;10.10;99.90
26182;DHT22;13927;51.534;11.866;2023-02-15T11:52:07;10.20;99.90
26182;DHT22;13927;51.534;11.866;2023-02-15T11:54:41;10.30;99.90
26182;DHT22;13927;51.534;11.866;2023-02-15T11:57:33;10.40;99.90
26182;DHT22;13927;51.534;11.866;2023-02-15T12:03:18;10.70;99.90
26182;DHT22;13927;51.534;11.866;2023-02-15T12:05:53;10.70;99.90
26182;DHT22;13927;51.534;11.866;2023-02-15T12:08:22;10.90;99.90
26182;DHT22;13927;51.534;11.866;2023-02-15T12:11:07;11.00;99.90
26182;DHT22;13927;51.534;11.866;2023-02-15T12:14:01;11.20;99.90
26182;DHT22;13927;51.534;11.866;2023-02-15T12:16:31;11.20;99.90
26182;DHT22;13927;51.534;11.866;2023-02-15T12:19:36;11.30;99.90
26182;DHT22;13927;51.534;11.866;2023-02-15T12:22:08;11.40;99.90
26182;DHT22;13927;51.534;11.866;2023-02-15T12:24:54;11.20;99.90
26182;DHT22;13927;51.534;11.866;2023-02-15T12:27:27;11.40;99.90
26182;DHT22;13927;51.534;11.866;2023-02-15T12:30:16;11.60;99.90
26182;DHT22;13927;51.534;11.866;2023-02-15T12:35:28;11.90;99.90
26182;DHT22;13927;51.534;11.866;2023-02-15T12:40:38;11.80;99.90
26182;DHT22;13927;51.534;11.866;2023-02-15T12:46:27;12.00;99.90
26182;DHT22;13927;51.534;11.866;2023-02-15T12:49:17;11.90;99.90
26182;DHT22;13927;51.534;11.866;2023-02-15T12:51:51;12.10;99.90
26182;DHT22;13927;51.534;11.866;2023-02-15T12:57:28;12.70;99.90
26182;DHT22;13927;51.534;11.866;2023-02-15T13:00:00;13.00;99.90
26182;DHT22;13927;51.534;11.866;2023-02-15T13:02:41;13.00;99.90
26182;DHT22;13927;51.534;11.866;2023-02-15T13:05:32;13.00;99.90
26182;DHT22;13927;51.534;11.866;2023-02-15T13:10:56;12.90;99.90
26182;DHT22;13927;51.534;11.866;2023-02-15T13:13:26;12.90;99.90
26182;DHT22;13927;51.534;11.866;2023-02-15T13:16:00;13.10;99.90
26182;DHT22;13927;51.534;11.866;2023-02-15T13:18:45;13.10;99.90
26182;DHT22;13927;51.534;11.866;2023-02-15T13:21:18;13.40;99.90
26182;DHT22;13927;51.534;11.866;2023-02-15T13:23:53;13.50;99.90
26182;DHT22;13927;51.534;11.866;2023-02-15T13:26:23;13.50;99.90
26182;DHT22;13927;51.534;11.866;2023-02-15T13:29:05;13.70;99.90
26182;DHT22;13927;51.534;11.866;2023-02-15T13:31:36;13.60;99.90
26182;DHT22;13927;51.534;11.866;2023-02-15T13:34:35;13.60;99.90
26182;DHT22;13927;51.534;11.866;2023-02-15T13:39:53;13.90;99.90
26182;DHT22;13927;51.534;11.866;2023-02-15T13:42:40;13.80;99.90
26182;DHT22;13927;51.534;11.866;2023-02-15T13:45:47;13.60;99.90
26182;DHT22;13927;51.534;11.866;2023-02-15T13:49:16;13.70;99.90
26182;DHT22;13927;51.534;11.866;2023-02-15T13:58:03;13.80;99.90
26182;DHT22;13927;51.534;11.866;2023-02-15T14:01:15;13.70;99.90
26182;DHT22;13927;51.534;11.866;2023-02-15T14:10:20;13.60;99.90
26182;DHT22;13927;51.534;11.866;2023-02-15T14:15:58;13.80;99.90
26182;DHT22;13927;51.534;11.866;2023-02-15T14:18:51;13.90;99.90
26182;DHT22;13927;51.534;11.866;2023-02-15T14:21:30;14.00;99.90
26182;DHT22;13927;51.534;11.866;2023-02-15T14:26:44;13.90;99.90
26182;DHT22;13927;51.534;11.866;2023-02-15T14:31:52;14.10;99.90
26182;DHT22;13927;51.534;11.866;2023-02-15T14:34:27;13.90;99.90
26182;DHT22;13927;51.534;11.866;2023-02-15T14:36:57;13.90;99.90
26182;DHT22;13927;51.534;11.866;2023-02-15T14:42:39;13.60;99.90
26182;DHT22;13927;51.534;11.866;2023-02-15T14:45:31;13.20;99.90
26182;DHT22;13927;51.534;11.866;2023-02-15T14:48:42;13.20;99.90
26182;DHT22;13927;51.534;11.866;2023-02-15T14:51:11;13.10;99.90
26182;DHT22;13927;51.534;11.866;2023-02-15T14:56:44;13.10;99.90
26182;DHT22;13927;51.534;11.866;2023-02-15T14:59:14;13.00;99.90
26182;DHT22;13927;51.534;11.866;2023-02-15T15:01:42;12.90;99.90
26182;DHT22;13927;51.534;11.866;2023-02-15T15:04:27;12.90;99.90
26182;DHT22;13927;51.534;11.866;2023-02-15T15:09:40;12.90;99.90
26182;DHT22;13927;51.534;11.866;2023-02-15T15:12:36;13.00;99.90
26182;DHT22;13927;51.534;11.866;2023-02-15T15:15:05;13.40;99.90
26182;DHT22;13927;51.534;11.866;2023-02-15T15:22:33;13.70;99.90
26182;DHT22;13927;51.534;11.866;2023-02-15T15:25:11;13.90;99.90
26182;DHT22;13927;51.534;11.866;2023-02-15T15:28:06;14.00;99.90
26182;DHT22;13927;51.534;11.866;2023-02-15T15:50:23;13.20;99.90
26182;DHT22;13927;51.534;11.866;2023-02-15T15:52:52;13.60;99.90
26182;DHT22;13927;51.534;11.866;2023-02-15T15:55:23;13.90;99.90
26182;DHT22;13927;51.534;11.866;2023-02-15T15:57:59;13.90;99.90
26182;DHT22;13927;51.534;11.866;2023-02-15T16:00:35;13.80;99.90
26182;DHT22;13927;51.534;11.866;2023-02-15T16:03:04;13.80;99.90
26182;DHT22;13927;51.534;11.866;2023-02-15T16:05:37;13.80;99.90
26182;DHT22;13927;51.534;11.866;2023-02-15T16:08:04;13.50;99.90
26182;DHT22;13927;51.534;11.866;2023-02-15T16:10:30;13.20;99.90
26182;DHT22;13927;51.534;11.866;2023-02-15T16:13:01;12.80;99.90
26182;DHT22;13927;51.534;11.866;2023-02-15T16:15:44;12.60;99.90
26182;DHT22;13927;51.534;11.866;2023-02-15T16:18:16;12.30;99.90
26182;DHT22;13927;51.534;11.866;2023-02-15T16:20:51;12.00;99.90
26182;DHT22;13927;51.534;11.866;2023-02-15T16:29:25;11.00;99.90
26182;DHT22;13927;51.534;11.866;2023-02-15T16:32:01;10.50;99.90
26182;DHT22;13927;51.534;11.866;2023-02-15T16:34:29;10.30;99.90
26182;DHT22;13927;51.534;11.866;2023-02-15T16:37:15;10.00;99.90
26182;DHT22;13927;51.534;11.866;2023-02-15T16:39:42;9.80;99.90
26182;DHT22;13927;51.534;11.866;2023-02-15T16:42:09;9.60;99.90
26182;DHT22;13927;51.534;11.866;2023-02-15T16:44:37;9.40;99.90
26182;DHT22;13927;51.534;11.866;2023-02-15T16:47:02;9.20;99.90
26182;DHT22;13927;51.534;11.866;2023-02-15T16:49:29;9.00;99.90
26182;DHT22;13927;51.534;11.866;2023-02-15T16:52:00;8.70;99.90
26182;DHT22;13927;51.534;11.866;2023-02-15T16:54:29;8.60;99.90
26182;DHT22;13927;51.534;11.866;2023-02-15T16:56:56;8.40;99.90
26182;DHT22;13927;51.534;11.866;2023-02-15T16:59:49;8.30;99.90
26182;DHT22;13927;51.534;11.866;2023-02-15T17:02:29;8.10;99.90
26182;DHT22;13927;51.534;11.866;2023-02-15T17:05:13;8.00;99.90
26182;DHT22;13927;51.534;11.866;2023-02-15T17:08:04;7.80;99.90
26182;DHT22;13927;51.534;11.866;2023-02-15T17:13:38;7.50;99.90
26182;DHT22;13927;51.534;11.866;2023-02-15T17:18:44;7.20;99.90
26182;DHT22;13927;51.534;11.866;2023-02-15T17:21:20;7.10;99.90
26182;DHT22;13927;51.534;11.866;2023-02-15T17:23:51;6.90;99.90
26182;DHT22;13927;51.534;11.866;2023-02-15T17:26:27;6.80;99.90
26182;DHT22;13927;51.534;11.866;2023-02-15T17:29:14;6.80;99.90
26182;DHT22;13927;51.534;11.866;2023-02-15T17:31:49;6.60;99.90
26182;DHT22;13927;51.534;11.866;2023-02-15T17:34:41;6.50;99.90
26182;DHT22;13927;51.534;11.866;2023-02-15T17:37:27;6.40;99.90
26182;DHT22;13927;51.534;11.866;2023-02-15T17:40:00;6.30;99.90
26182;DHT22;13927;51.534;11.866;2023-02-15T17:42:27;6.20;99.90
26182;DHT22;13927;51.534;11.866;2023-02-15T17:44:53;6.10;99.90
26182;DHT22;13927;51.534;11.866;2023-02-15T17:47:23;6.00;99.90
26182;DHT22;13927;51.534;11.866;2023-02-15T17:49:53;6.00;99.90
26182;DHT22;13927;51.534;11.866;2023-02-15T17:52:18;5.90;99.90
26182;DHT22;13927;51.534;11.866;2023-02-15T17:54:45;5.80;99.90
26182;DHT22;13927;51.534;11.866;2023-02-15T17:57:29;5.70;99.90
26182;DHT22;13927;51.534;11.866;2023-02-15T17:59:56;5.60;99.90
26182;DHT22;13927;51.534;11.866;2023-02-15T18:02:40;5.50;99.90
26182;DHT22;13927;51.534;11.866;2023-02-15T18:05:25;5.40;99.90
26182;DHT22;13927;51.534;11.866;2023-02-15T18:08:14;5.30;99.90
26182;DHT22;13927;51.534;11.866;2023-02-15T18:11:02;5.40;99.90
26182;DHT22;13927;51.534;11.866;2023-02-15T18:13:46;5.40;99.90
26182;DHT22;13927;51.534;11.866;2023-02-15T18:16:14;5.40;99.90
26182;DHT22;13927;51.534;11.866;2023-02-15T18:18:43;5.50;99.90
26182;DHT22;13927;51.534;11.866;2023-02-15T18:21:11;5.60;99.90
26182;DHT22;13927;51.534;11.866;2023-02-15T18:23:38;5.70;99.90
26182;DHT22;13927;51.534;11.866;2023-02-15T18:26:06;5.80;99.90
26182;DHT22;13927;51.534;11.866;2023-02-15T18:28:34;5.90;99.90
26182;DHT22;13927;51.534;11.866;2023-02-15T18:31:01;6.00;99.90
26182;DHT22;13927;51.534;11.866;2023-02-15T18:33:45;5.90;99.90
26182;DHT22;13927;51.534;11.866;2023-02-15T18:36:25;5.90;99.90
26182;DHT22;13927;51.534;11.866;2023-02-15T18:38:54;5.80;99.90
26182;DHT22;13927;51.534;11.866;2023-02-15T18:41:21;5.70;99.90
26182;DHT22;13927;51.534;11.866;2023-02-15T18:43:48;5.80;99.90
26182;DHT22;13927;51.534;11.866;2023-02-15T18:46:15;5.80;99.90
26182;DHT22;13927;51.534;11.866;2023-02-15T18:48:42;5.90;99.90
26182;DHT22;13927;51.534;11.866;2023-02-15T18:51:19;5.90;99.90
26182;DHT22;13927;51.534;11.866;2023-02-15T18:53:47;5.90;99.90
26182;DHT22;13927;51.534;11.866;2023-02-15T18:56:18;5.90;99.90